sensor_id;sensor_type;location;lat;lon;timestamp;pressure;altitude;pressure_sealevel;temperature;humidity
19114;BME280;9689;51.052;13.772;2022-11-10T00:00:10;100442.19;;;9.94;90.26
19114;BME280;9689;51.052;13.772;2022-11-10T00:05:31;100445.78;;;9.85;90.00
19114;BME280;9689;51.052;13.772;2022-11-10T00:10:51;100455.34;;;9.84;90.49
19114;BME280;9689;51.052;13.772;2022-11-10T00:16:17;100458.81;;;9.85;90.65
19114;BME280;9689;51.052;13.772;2022-11-10T00:21:54;100467.44;;;9.87;91.08
19114;BME280;9689;51.052;13.772;2022-11-10T00:27:14;100466.59;;;9.86;90.59
19114;BME280;9689;51.052;13.772;2022-11-10T00:32:34;100473.53;;;9.86;90.17
19114;BME280;9689;51.052;13.772;2022-11-10T00:37:53;100481.34;;;9.86;90.14
19114;BME280;9689;51.052;13.772;2022-11-10T00:43:12;100485.72;;;9.84;90.24
19114;BME280;9689;51.052;13.772;2022-11-10T00:48:33;100487.47;;;9.80;90.51
19114;BME280;9689;51.052;13.772;2022-11-10T00:53:53;100504.84;;;9.80;90.15
19114;BME280;9689;51.052;13.772;2022-11-10T00:59:13;100502.41;;;9.69;91.02
19114;BME280;9689;51.052;13.772;2022-11-10T01:04:33;100516.34;;;9.62;90.69
19114;BME280;9689;51.052;13.772;2022-11-10T01:09:53;100521.59;;;9.60;91.06
19114;BME280;9689;51.052;13.772;2022-11-10T01:15:12;100530.31;;;9.55;91.53
19114;BME280;9689;51.052;13.772;2022-11-10T01:20:33;100534.88;;;9.39;91.47
19114;BME280;9689;51.052;13.772;2022-11-10T01:25:55;100534.88;;;9.39;91.78
19114;BME280;9689;51.052;13.772;2022-11-10T01:31:17;100532.34;;;9.31;91.74
19114;BME280;9689;51.052;13.772;2022-11-10T01:36:37;100527.03;;;9.42;91.77
19114;BME280;9689;51.052;13.772;2022-11-10T01:41:57;100541.59;;;9.57;92.05
19114;BME280;9689;51.052;13.772;2022-11-10T01:47:16;100549.31;;;9.63;91.60
19114;BME280;9689;51.052;13.772;2022-11-10T01:52:37;100551.97;;;9.58;90.61
19114;BME280;9689;51.052;13.772;2022-11-10T01:57:56;100552.91;;;9.53;90.17
19114;BME280;9689;51.052;13.772;2022-11-10T02:03:22;100564.41;;;9.33;89.93
19114;BME280;9689;51.052;13.772;2022-11-10T02:08:44;100557.53;;;9.26;90.75
19114;BME280;9689;51.052;13.772;2022-11-10T02:14:05;100562.00;;;9.14;90.86
19114;BME280;9689;51.052;13.772;2022-11-10T02:19:26;100571.56;;;9.09;91.04
19114;BME280;9689;51.052;13.772;2022-11-10T02:24:46;100560.38;;;9.03;90.79
19114;BME280;9689;51.052;13.772;2022-11-10T02:30:07;100568.28;;;8.91;91.47
19114;BME280;9689;51.052;13.772;2022-11-10T02:35:26;100570.00;;;8.91;91.32
19114;BME280;9689;51.052;13.772;2022-11-10T02:40:49;100593.38;;;8.92;90.92
19114;BME280;9689;51.052;13.772;2022-11-10T02:46:08;100596.81;;;8.99;90.55
19114;BME280;9689;51.052;13.772;2022-11-10T02:51:27;100603.84;;;8.86;91.06
19114;BME280;9689;51.052;13.772;2022-11-10T02:56:48;100622.06;;;8.83;91.13
19114;BME280;9689;51.052;13.772;2022-11-10T03:02:07;100628.97;;;8.84;90.64
19114;BME280;9689;51.052;13.772;2022-11-10T03:07:26;100638.63;;;8.67;91.16
19114;BME280;9689;51.052;13.772;2022-11-10T03:12:47;100647.28;;;8.67;91.29
19114;BME280;9689;51.052;13.772;2022-11-10T03:18:07;100646.47;;;8.59;90.87
19114;BME280;9689;51.052;13.772;2022-11-10T03:23:26;100654.19;;;8.68;90.72
19114;BME280;9689;51.052;13.772;2022-11-10T03:28:46;100663.53;;;8.97;89.54
19114;BME280;9689;51.052;13.772;2022-11-10T03:34:05;100675.53;;;9.15;87.89
19114;BME280;9689;51.052;13.772;2022-11-10T03:39:25;100667.84;;;8.99;87.96
19114;BME280;9689;51.052;13.772;2022-11-10T03:44:45;100676.63;;;8.83;88.15
19114;BME280;9689;51.052;13.772;2022-11-10T03:50:06;100696.63;;;8.73;88.69
19114;BME280;9689;51.052;13.772;2022-11-10T03:55:27;100693.13;;;8.77;88.50
19114;BME280;9689;51.052;13.772;2022-11-10T04:00:47;100695.75;;;8.73;88.13
19114;BME280;9689;51.052;13.772;2022-11-10T04:06:07;100701.09;;;8.52;88.69
19114;BME280;9689;51.052;13.772;2022-11-10T04:11:46;100720.91;;;8.66;88.81
19114;BME280;9689;51.052;13.772;2022-11-10T04:17:24;100720.94;;;8.62;88.52
19114;BME280;9689;51.052;13.772;2022-11-10T04:22:43;100732.22;;;8.50;88.42
19114;BME280;9689;51.052;13.772;2022-11-10T04:28:32;100743.53;;;8.44;88.57
19114;BME280;9689;51.052;13.772;2022-11-10T04:33:53;100744.34;;;8.54;87.50
19114;BME280;9689;51.052;13.772;2022-11-10T04:39:12;100754.69;;;8.59;87.41
19114;BME280;9689;51.052;13.772;2022-11-10T04:44:32;100766.88;;;8.54;87.45
19114;BME280;9689;51.052;13.772;2022-11-10T04:49:52;100772.03;;;8.63;86.24
19114;BME280;9689;51.052;13.772;2022-11-10T04:55:11;100765.81;;;8.90;85.71
19114;BME280;9689;51.052;13.772;2022-11-10T05:00:31;100770.06;;;9.04;84.66
19114;BME280;9689;51.052;13.772;2022-11-10T05:05:52;100780.41;;;9.11;84.14
19114;BME280;9689;51.052;13.772;2022-11-10T05:11:12;100787.38;;;9.09;84.54
19114;BME280;9689;51.052;13.772;2022-11-10T05:16:31;100786.31;;;9.35;84.44
19114;BME280;9689;51.052;13.772;2022-11-10T05:21:52;100792.25;;;9.53;84.13
19114;BME280;9689;51.052;13.772;2022-11-10T05:27:11;100805.22;;;9.59;83.93
19114;BME280;9689;51.052;13.772;2022-11-10T05:32:30;100822.47;;;9.69;80.62
19114;BME280;9689;51.052;13.772;2022-11-10T05:37:51;100822.44;;;9.75;80.50
19114;BME280;9689;51.052;13.772;2022-11-10T05:43:10;100829.31;;;9.82;79.00
19114;BME280;9689;51.052;13.772;2022-11-10T05:48:29;100821.34;;;10.01;78.52
19114;BME280;9689;51.052;13.772;2022-11-10T05:53:50;100835.22;;;10.01;78.03
19114;BME280;9689;51.052;13.772;2022-11-10T05:59:09;100831.91;;;9.81;79.47
19114;BME280;9689;51.052;13.772;2022-11-10T06:04:28;100847.66;;;9.64;80.78
19114;BME280;9689;51.052;13.772;2022-11-10T06:09:48;100862.47;;;9.59;81.10
19114;BME280;9689;51.052;13.772;2022-11-10T06:15:08;100867.75;;;9.44;80.71
19114;BME280;9689;51.052;13.772;2022-11-10T06:20:28;100882.50;;;9.45;81.00
19114;BME280;9689;51.052;13.772;2022-11-10T06:25:49;100902.38;;;9.55;80.37
19114;BME280;9689;51.052;13.772;2022-11-10T06:31:09;100917.84;;;9.76;78.81
19114;BME280;9689;51.052;13.772;2022-11-10T06:36:28;100931.72;;;9.78;78.56
19114;BME280;9689;51.052;13.772;2022-11-10T06:41:49;100942.97;;;9.80;81.09
19114;BME280;9689;51.052;13.772;2022-11-10T06:47:08;100955.91;;;9.94;78.45
19114;BME280;9689;51.052;13.772;2022-11-10T06:52:27;100967.91;;;10.16;77.61
19114;BME280;9689;51.052;13.772;2022-11-10T06:57:50;100983.50;;;10.27;76.08
19114;BME280;9689;51.052;13.772;2022-11-10T07:03:12;100993.75;;;10.47;74.68
19114;BME280;9689;51.052;13.772;2022-11-10T07:08:31;101003.31;;;10.45;75.74
19114;BME280;9689;51.052;13.772;2022-11-10T07:13:52;101003.19;;;10.57;74.63
19114;BME280;9689;51.052;13.772;2022-11-10T07:19:11;101023.97;;;10.66;73.75
19114;BME280;9689;51.052;13.772;2022-11-10T07:24:30;101032.63;;;10.71;73.97
19114;BME280;9689;51.052;13.772;2022-11-10T07:29:51;101035.19;;;10.78;73.80
19114;BME280;9689;51.052;13.772;2022-11-10T07:35:10;101045.47;;;10.91;73.38
19114;BME280;9689;51.052;13.772;2022-11-10T07:40:29;101046.22;;;11.02;71.99
19114;BME280;9689;51.052;13.772;2022-11-10T07:45:51;101053.19;;;11.02;72.43
19114;BME280;9689;51.052;13.772;2022-11-10T07:51:11;101061.75;;;11.16;71.16
19114;BME280;9689;51.052;13.772;2022-11-10T07:56:30;101071.25;;;11.23;72.33
19114;BME280;9689;51.052;13.772;2022-11-10T08:01:51;101069.31;;;11.38;70.89
19114;BME280;9689;51.052;13.772;2022-11-10T08:07:10;101084.88;;;11.50;70.13
19114;BME280;9689;51.052;13.772;2022-11-10T08:12:29;101086.63;;;11.49;69.51
19114;BME280;9689;51.052;13.772;2022-11-10T08:17:57;101100.38;;;11.65;68.97
19114;BME280;9689;51.052;13.772;2022-11-10T08:23:17;101108.97;;;11.73;68.89
19114;BME280;9689;51.052;13.772;2022-11-10T08:28:37;101103.78;;;11.69;68.13
19114;BME280;9689;51.052;13.772;2022-11-10T08:33:58;101130.66;;;11.78;68.14
19114;BME280;9689;51.052;13.772;2022-11-10T08:39:17;101118.22;;;12.02;67.58
19114;BME280;9689;51.052;13.772;2022-11-10T08:44:55;101130.38;;;12.04;67.67
19114;BME280;9689;51.052;13.772;2022-11-10T08:50:16;101146.25;;;11.87;68.08
19114;BME280;9689;51.052;13.772;2022-11-10T08:55:35;101153.91;;;12.03;67.27
19114;BME280;9689;51.052;13.772;2022-11-10T09:00:55;101166.09;;;12.02;67.70
19114;BME280;9689;51.052;13.772;2022-11-10T09:06:16;101174.66;;;12.16;66.77
19114;BME280;9689;51.052;13.772;2022-11-10T09:11:35;101183.13;;;12.35;66.60
19114;BME280;9689;51.052;13.772;2022-11-10T09:16:54;101191.31;;;12.72;65.19
19114;BME280;9689;51.052;13.772;2022-11-10T09:22:15;101202.50;;;12.82;64.94
19114;BME280;9689;51.052;13.772;2022-11-10T09:27:35;101188.63;;;12.76;64.77
19114;BME280;9689;51.052;13.772;2022-11-10T09:32:56;101201.78;;;12.71;65.61
19114;BME280;9689;51.052;13.772;2022-11-10T09:38:17;101207.22;;;12.56;66.00
19114;BME280;9689;51.052;13.772;2022-11-10T09:43:39;101206.47;;;12.48;66.28
19114;BME280;9689;51.052;13.772;2022-11-10T09:49:03;101213.59;;;12.36;66.40
19114;BME280;9689;51.052;13.772;2022-11-10T09:54:33;101231.78;;;12.44;66.50
19114;BME280;9689;51.052;13.772;2022-11-10T09:59:55;101224.63;;;12.58;66.13
19114;BME280;9689;51.052;13.772;2022-11-10T10:05:49;101241.03;;;12.68;65.21
19114;BME280;9689;51.052;13.772;2022-11-10T10:11:24;101248.91;;;12.69;65.68
19114;BME280;9689;51.052;13.772;2022-11-10T10:16:50;101239.94;;;12.86;64.18
19114;BME280;9689;51.052;13.772;2022-11-10T10:22:29;101235.59;;;12.86;64.39
19114;BME280;9689;51.052;13.772;2022-11-10T10:27:57;101231.75;;;13.09;63.36
19114;BME280;9689;51.052;13.772;2022-11-10T10:33:19;101244.16;;;12.96;63.55
19114;BME280;9689;51.052;13.772;2022-11-10T10:38:42;101233.88;;;12.82;64.15
19114;BME280;9689;51.052;13.772;2022-11-10T10:44:11;101232.84;;;12.92;64.03
19114;BME280;9689;51.052;13.772;2022-11-10T10:49:31;101236.94;;;13.10;62.79
19114;BME280;9689;51.052;13.772;2022-11-10T10:54:58;101230.81;;;13.11;61.49
19114;BME280;9689;51.052;13.772;2022-11-10T11:00:22;101237.66;;;13.23;61.36
19114;BME280;9689;51.052;13.772;2022-11-10T11:05:42;101229.69;;;13.29;61.77
19114;BME280;9689;51.052;13.772;2022-11-10T11:11:08;101232.47;;;13.21;61.89
19114;BME280;9689;51.052;13.772;2022-11-10T11:16:45;101230.53;;;13.33;61.78
19114;BME280;9689;51.052;13.772;2022-11-10T11:22:31;101234.69;;;13.44;61.01
19114;BME280;9689;51.052;13.772;2022-11-10T11:28:04;101242.66;;;13.37;60.32
19114;BME280;9689;51.052;13.772;2022-11-10T11:33:36;101245.28;;;13.37;60.70
19114;BME280;9689;51.052;13.772;2022-11-10T11:39:06;101266.78;;;13.57;59.92
19114;BME280;9689;51.052;13.772;2022-11-10T11:44:45;101248.09;;;13.77;58.60
19114;BME280;9689;51.052;13.772;2022-11-10T11:50:22;101255.91;;;13.78;58.50
19114;BME280;9689;51.052;13.772;2022-11-10T11:55:54;101267.59;;;14.08;58.15
19114;BME280;9689;51.052;13.772;2022-11-10T12:01:28;101258.41;;;13.86;58.67
19114;BME280;9689;51.052;13.772;2022-11-10T12:07:03;101256.44;;;13.99;58.78
19114;BME280;9689;51.052;13.772;2022-11-10T12:12:46;101259.59;;;14.14;58.63
19114;BME280;9689;51.052;13.772;2022-11-10T12:18:14;101268.13;;;14.26;58.01
19114;BME280;9689;51.052;13.772;2022-11-10T12:23:48;101255.63;;;14.38;58.27
19114;BME280;9689;51.052;13.772;2022-11-10T12:29:17;101265.09;;;14.47;57.64
19114;BME280;9689;51.052;13.772;2022-11-10T12:34:41;101278.25;;;14.46;56.87
19114;BME280;9689;51.052;13.772;2022-11-10T12:40:13;101274.44;;;14.15;57.76
19114;BME280;9689;51.052;13.772;2022-11-10T12:45:38;101269.28;;;14.11;58.24
19114;BME280;9689;51.052;13.772;2022-11-10T12:51:04;101286.72;;;14.13;57.99
19114;BME280;9689;51.052;13.772;2022-11-10T12:56:32;101277.69;;;13.82;59.32
19114;BME280;9689;51.052;13.772;2022-11-10T13:01:59;101278.09;;;14.08;58.97
19114;BME280;9689;51.052;13.772;2022-11-10T13:07:22;101270.72;;;14.27;58.32
19114;BME280;9689;51.052;13.772;2022-11-10T13:18:21;101282.34;;;14.60;57.28
19114;BME280;9689;51.052;13.772;2022-11-10T13:29:52;101292.69;;;14.22;57.85
19114;BME280;9689;51.052;13.772;2022-11-10T13:35:53;101299.06;;;14.08;57.70
19114;BME280;9689;51.052;13.772;2022-11-10T13:41:23;101307.72;;;14.12;57.59
19114;BME280;9689;51.052;13.772;2022-11-10T13:47:09;101313.25;;;14.41;57.18
19114;BME280;9689;51.052;13.772;2022-11-10T13:52:45;101323.09;;;14.30;57.52
19114;BME280;9689;51.052;13.772;2022-11-10T13:58:09;101310.75;;;14.37;57.04
19114;BME280;9689;51.052;13.772;2022-11-10T14:03:52;101325.81;;;14.24;57.91
19114;BME280;9689;51.052;13.772;2022-11-10T14:09:25;101318.84;;;14.25;57.94
19114;BME280;9689;51.052;13.772;2022-11-10T14:14:51;101333.56;;;14.33;57.70
19114;BME280;9689;51.052;13.772;2022-11-10T14:20:21;101342.09;;;14.41;58.05
19114;BME280;9689;51.052;13.772;2022-11-10T14:25:51;101345.78;;;14.31;58.52
19114;BME280;9689;51.052;13.772;2022-11-10T14:31:18;101349.63;;;14.13;59.24
19114;BME280;9689;51.052;13.772;2022-11-10T14:36:38;101364.34;;;14.21;59.30
19114;BME280;9689;51.052;13.772;2022-11-10T14:42:01;101383.19;;;13.93;59.88
19114;BME280;9689;51.052;13.772;2022-11-10T14:47:23;101388.56;;;13.84;60.71
19114;BME280;9689;51.052;13.772;2022-11-10T14:52:45;101390.59;;;13.67;61.58
19114;BME280;9689;51.052;13.772;2022-11-10T14:58:11;101396.03;;;13.53;61.93
19114;BME280;9689;51.052;13.772;2022-11-10T15:03:34;101389.41;;;13.27;63.05
19114;BME280;9689;51.052;13.772;2022-11-10T15:08:54;101395.78;;;13.07;64.28
19114;BME280;9689;51.052;13.772;2022-11-10T15:14:45;101409.88;;;12.95;64.60
19114;BME280;9689;51.052;13.772;2022-11-10T15:20:26;101416.13;;;12.82;65.00
19114;BME280;9689;51.052;13.772;2022-11-10T15:25:46;101424.91;;;12.78;65.49
19114;BME280;9689;51.052;13.772;2022-11-10T15:31:20;101430.25;;;12.65;65.14
19114;BME280;9689;51.052;13.772;2022-11-10T15:36:40;101442.53;;;12.60;65.87
19114;BME280;9689;51.052;13.772;2022-11-10T15:42:11;101437.28;;;12.60;65.74
19114;BME280;9689;51.052;13.772;2022-11-10T15:47:32;101453.88;;;12.56;66.22
19114;BME280;9689;51.052;13.772;2022-11-10T15:52:51;101470.50;;;12.52;65.38
19114;BME280;9689;51.052;13.772;2022-11-10T15:58:12;101474.94;;;12.41;66.40
19114;BME280;9689;51.052;13.772;2022-11-10T16:03:34;101473.34;;;12.26;67.54
19114;BME280;9689;51.052;13.772;2022-11-10T16:08:53;101475.16;;;12.15;67.08
19114;BME280;9689;51.052;13.772;2022-11-10T16:14:14;101487.47;;;11.99;68.03
19114;BME280;9689;51.052;13.772;2022-11-10T16:19:36;101491.03;;;11.84;68.92
19114;BME280;9689;51.052;13.772;2022-11-10T16:24:55;101507.50;;;11.97;69.83
19114;BME280;9689;51.052;13.772;2022-11-10T16:30:15;101511.94;;;11.86;68.48
19114;BME280;9689;51.052;13.772;2022-11-10T16:35:35;101511.09;;;11.72;68.36
19114;BME280;9689;51.052;13.772;2022-11-10T16:40:57;101525.94;;;11.60;69.03
19114;BME280;9689;51.052;13.772;2022-11-10T16:46:19;101537.28;;;11.58;68.27
19114;BME280;9689;51.052;13.772;2022-11-10T16:51:42;101531.19;;;11.54;67.84
19114;BME280;9689;51.052;13.772;2022-11-10T16:57:11;101544.31;;;11.42;68.34
19114;BME280;9689;51.052;13.772;2022-11-10T17:02:32;101546.94;;;11.41;68.60
19114;BME280;9689;51.052;13.772;2022-11-10T17:07:54;101549.53;;;11.36;69.18
19114;BME280;9689;51.052;13.772;2022-11-10T17:13:15;101549.63;;;11.09;69.90
19114;BME280;9689;51.052;13.772;2022-11-10T17:18:35;101560.06;;;10.99;70.30
19114;BME280;9689;51.052;13.772;2022-11-10T17:23:55;101556.59;;;10.94;70.09
19114;BME280;9689;51.052;13.772;2022-11-10T17:29:16;101566.16;;;10.75;69.86
19114;BME280;9689;51.052;13.772;2022-11-10T17:34:36;101568.78;;;10.82;69.44
19114;BME280;9689;51.052;13.772;2022-11-10T17:39:56;101574.00;;;10.75;69.97
19114;BME280;9689;51.052;13.772;2022-11-10T17:45:18;101585.28;;;10.85;69.43
19114;BME280;9689;51.052;13.772;2022-11-10T17:50:40;101591.38;;;10.83;68.88
19114;BME280;9689;51.052;13.772;2022-11-10T17:56:01;101593.13;;;10.78;68.98
19114;BME280;9689;51.052;13.772;2022-11-10T18:01:21;101599.19;;;10.67;69.26
19114;BME280;9689;51.052;13.772;2022-11-10T18:06:40;101596.59;;;10.64;69.30
19114;BME280;9689;51.052;13.772;2022-11-10T18:12:02;101601.84;;;10.69;69.86
19114;BME280;9689;51.052;13.772;2022-11-10T18:17:22;101597.47;;;10.65;69.42
19114;BME280;9689;51.052;13.772;2022-11-10T18:22:41;101607.00;;;10.57;70.14
19114;BME280;9689;51.052;13.772;2022-11-10T18:28:02;101605.31;;;10.69;69.37
19114;BME280;9689;51.052;13.772;2022-11-10T18:33:21;101621.81;;;10.62;68.95
19114;BME280;9689;51.052;13.772;2022-11-10T18:38:42;101631.38;;;10.62;69.55
19114;BME280;9689;51.052;13.772;2022-11-10T18:44:02;101633.94;;;10.57;69.27
19114;BME280;9689;51.052;13.772;2022-11-10T18:49:22;101630.47;;;10.55;71.72
19114;BME280;9689;51.052;13.772;2022-11-10T18:54:41;101638.28;;;10.57;69.81
19114;BME280;9689;51.052;13.772;2022-11-10T19:00:03;101653.06;;;10.42;69.36
19114;BME280;9689;51.052;13.772;2022-11-10T19:05:23;101644.28;;;10.24;70.08
19114;BME280;9689;51.052;13.772;2022-11-10T19:10:42;101645.09;;;10.12;71.74
19114;BME280;9689;51.052;13.772;2022-11-10T19:16:04;101641.56;;;9.93;72.76
19114;BME280;9689;51.052;13.772;2022-11-10T19:21:25;101649.31;;;9.73;73.67
19114;BME280;9689;51.052;13.772;2022-11-10T19:26:48;101647.56;;;9.81;72.94
19114;BME280;9689;51.052;13.772;2022-11-10T19:32:09;101655.38;;;9.74;73.21
19114;BME280;9689;51.052;13.772;2022-11-10T19:37:32;101662.44;;;10.07;71.08
19114;BME280;9689;51.052;13.772;2022-11-10T19:42:52;101666.78;;;10.03;72.22
19114;BME280;9689;51.052;13.772;2022-11-10T19:48:12;101666.66;;;9.77;73.13
19114;BME280;9689;51.052;13.772;2022-11-10T19:53:32;101661.41;;;9.73;73.53
19114;BME280;9689;51.052;13.772;2022-11-10T19:58:51;101666.56;;;9.59;74.26
19114;BME280;9689;51.052;13.772;2022-11-10T20:04:12;101673.44;;;9.51;74.31
19114;BME280;9689;51.052;13.772;2022-11-10T20:09:31;101684.66;;;9.41;74.68
19114;BME280;9689;51.052;13.772;2022-11-10T20:14:50;101687.19;;;9.30;75.58
19114;BME280;9689;51.052;13.772;2022-11-10T20:20:11;101697.59;;;9.30;75.90
19114;BME280;9689;51.052;13.772;2022-11-10T20:25:31;101700.00;;;9.10;76.66
19114;BME280;9689;51.052;13.772;2022-11-10T20:30:54;101706.94;;;9.08;76.75
19114;BME280;9689;51.052;13.772;2022-11-10T20:36:16;101717.34;;;9.08;76.41
19114;BME280;9689;51.052;13.772;2022-11-10T20:41:37;101725.00;;;8.94;76.90
19114;BME280;9689;51.052;13.772;2022-11-10T20:46:58;101743.16;;;8.88;77.80
19114;BME280;9689;51.052;13.772;2022-11-10T20:52:19;101718.13;;;8.99;78.29
19114;BME280;9689;51.052;13.772;2022-11-10T20:57:38;101708.44;;;8.80;78.11
19114;BME280;9689;51.052;13.772;2022-11-10T21:02:58;101701.25;;;8.56;78.78
19114;BME280;9689;51.052;13.772;2022-11-10T21:08:18;101709.09;;;8.61;79.27
19114;BME280;9689;51.052;13.772;2022-11-10T21:13:38;101712.38;;;8.44;79.65
19114;BME280;9689;51.052;13.772;2022-11-10T21:18:57;101712.28;;;8.37;80.21
19114;BME280;9689;51.052;13.772;2022-11-10T21:24:19;101712.16;;;8.29;80.27
19114;BME280;9689;51.052;13.772;2022-11-10T21:29:38;101710.34;;;8.23;80.94
19114;BME280;9689;51.052;13.772;2022-11-10T21:34:59;101714.66;;;8.21;80.38
19114;BME280;9689;51.052;13.772;2022-11-10T21:40:19;101711.94;;;8.11;81.02
19114;BME280;9689;51.052;13.772;2022-11-10T21:45:39;101708.34;;;8.00;81.97
19114;BME280;9689;51.052;13.772;2022-11-10T21:50:58;101728.19;;;7.98;81.50
19114;BME280;9689;51.052;13.772;2022-11-10T21:56:19;101729.84;;;7.91;81.72
19114;BME280;9689;51.052;13.772;2022-11-10T22:01:39;101742.91;;;7.97;81.76
19114;BME280;9689;51.052;13.772;2022-11-10T22:06:58;101746.25;;;7.88;82.37
19114;BME280;9689;51.052;13.772;2022-11-10T22:12:37;101740.16;;;7.86;81.53
19114;BME280;9689;51.052;13.772;2022-11-10T22:18:16;101739.06;;;7.72;82.36
19114;BME280;9689;51.052;13.772;2022-11-10T22:23:53;101750.25;;;7.65;82.82
19114;BME280;9689;51.052;13.772;2022-11-10T22:29:32;101769.78;;;7.45;83.48
19114;BME280;9689;51.052;13.772;2022-11-10T22:34:51;101779.28;;;7.44;83.56
19114;BME280;9689;51.052;13.772;2022-11-10T22:40:11;101767.13;;;7.40;83.73
19114;BME280;9689;51.052;13.772;2022-11-10T22:45:51;101769.66;;;7.37;83.84
19114;BME280;9689;51.052;13.772;2022-11-10T22:51:10;101763.53;;;7.30;83.84
19114;BME280;9689;51.052;13.772;2022-11-10T22:56:31;101764.44;;;7.34;83.68
19114;BME280;9689;51.052;13.772;2022-11-10T23:01:52;101781.66;;;7.30;84.18
19114;BME280;9689;51.052;13.772;2022-11-10T23:07:14;101774.66;;;7.26;84.33
19114;BME280;9689;51.052;13.772;2022-11-10T23:12:35;101774.59;;;7.22;84.45
19114;BME280;9689;51.052;13.772;2022-11-10T23:17:55;101780.50;;;7.13;84.75
19114;BME280;9689;51.052;13.772;2022-11-10T23:23:22;101774.44;;;7.13;84.18
19114;BME280;9689;51.052;13.772;2022-11-10T23:28:42;101768.34;;;7.11;84.53
19114;BME280;9689;51.052;13.772;2022-11-10T23:34:03;101770.72;;;6.98;84.45
19114;BME280;9689;51.052;13.772;2022-11-10T23:39:22;101778.47;;;6.97;85.11
19114;BME280;9689;51.052;13.772;2022-11-10T23:44:41;101784.44;;;6.93;84.84
19114;BME280;9689;51.052;13.772;2022-11-10T23:50:02;101794.78;;;6.91;84.59
19114;BME280;9689;51.052;13.772;2022-11-10T23:55:21;101784.19;;;6.79;85.24
